createdAt,value
2019-05-03T00:00:25.590Z,38.97
2019-05-03T00:03:07.927Z,37.17
2019-05-03T00:05:59.095Z,39.60
2019-05-03T00:08:30.442Z,37.53
2019-05-03T00:11:02.305Z,40.40
2019-05-03T00:13:32.687Z,35.43
2019-05-03T00:16:14.960Z,39.53
2019-05-03T00:18:45.585Z,37.83
2019-05-03T00:21:15.909Z,33.90
2019-05-03T00:23:46.252Z,37.60
2019-05-03T00:26:16.630Z,39.10
2019-05-03T00:28:46.973Z,40.90
2019-05-03T00:31:17.282Z,37.93
2019-05-03T00:33:51.588Z,42.67
2019-05-03T00:36:37.073Z,36.73
2019-05-03T00:39:23.018Z,34.87
2019-05-03T00:41:53.335Z,37.53
2019-05-03T00:44:23.705Z,39.77
2019-05-03T00:46:54.023Z,40.27
2019-05-03T00:49:24.376Z,44.03
2019-05-03T00:51:54.692Z,42.63
2019-05-03T00:54:25.026Z,41.23
2019-05-03T00:56:55.351Z,42.13
2019-05-03T00:59:25.717Z,41.27
2019-05-03T01:01:56.018Z,44.03
2019-05-03T01:04:26.405Z,45.40
2019-05-03T01:06:56.789Z,49.77
2019-05-03T01:09:27.614Z,54.27
2019-05-03T01:11:57.924Z,55.77
2019-05-03T01:14:28.266Z,56.70
2019-05-03T01:16:58.579Z,62.20
2019-05-03T01:19:28.925Z,62.33
2019-05-03T01:21:59.249Z,70.23
2019-05-03T01:24:29.659Z,66.03
2019-05-03T01:27:01.830Z,72.47
2019-05-03T01:29:32.356Z,64.97
2019-05-03T01:32:02.753Z,71.13
2019-05-03T01:34:33.110Z,67.27
2019-05-03T01:37:03.420Z,66.27
2019-05-03T01:39:33.772Z,60.23
2019-05-03T01:42:04.099Z,58.57
2019-05-03T01:44:34.447Z,54.50
2019-05-03T01:47:07.569Z,60.03
2019-05-03T01:49:48.471Z,58.43
2019-05-03T01:52:25.906Z,54.00
2019-05-03T01:54:56.284Z,54.93
2019-05-03T01:57:26.663Z,60.87
2019-05-03T01:59:57.034Z,64.60
2019-05-03T02:02:49.111Z,64.10
2019-05-03T02:05:42.894Z,63.07
2019-05-03T02:08:14.759Z,58.43
2019-05-03T02:10:46.419Z,54.17
2019-05-03T02:13:16.760Z,57.23
2019-05-03T02:15:47.104Z,56.27
2019-05-03T02:18:17.523Z,56.17
2019-05-03T02:20:47.851Z,53.53
2019-05-03T02:23:18.219Z,55.07
2019-05-03T02:25:56.191Z,54.67
2019-05-03T02:28:22.040Z,62.67
2019-05-03T02:30:53.538Z,56.50
2019-05-03T02:33:24.133Z,56.57
2019-05-03T02:35:54.489Z,57.50
2019-05-03T02:38:25.296Z,58.53
2019-05-03T02:40:55.605Z,55.93
2019-05-03T02:43:39.792Z,60.23
2019-05-03T02:46:36.142Z,62.87
2019-05-03T02:49:35.366Z,61.60
2019-05-03T02:52:06.632Z,49.03
2019-05-03T02:54:38.256Z,59.83
2019-05-03T02:57:08.575Z,57.83
2019-05-03T02:59:38.955Z,45.90
2019-05-03T03:02:09.290Z,44.93
2019-05-03T03:04:39.740Z,54.43
2019-05-03T03:07:10.993Z,45.43
2019-05-03T03:09:41.571Z,45.53
2019-05-03T03:12:15.123Z,38.53
2019-05-03T03:14:45.946Z,45.23
2019-05-03T03:17:18.627Z,32.77
2019-05-03T03:19:51.354Z,38.07
2019-05-03T03:22:25.895Z,41.37
2019-05-03T03:24:59.974Z,43.90
2019-05-03T03:27:32.301Z,41.80
2019-05-03T03:30:29.918Z,41.60
2019-05-03T03:33:01.871Z,47.13
2019-05-03T03:35:38.347Z,37.93
2019-05-03T03:38:09.427Z,42.80
2019-05-03T03:40:40.780Z,46.13
2019-05-03T03:43:12.728Z,41.57
2019-05-03T03:45:45.631Z,39.80
2019-05-03T03:48:19.598Z,41.33
2019-05-03T03:50:51.423Z,41.53
2019-05-03T03:53:26.457Z,45.97
2019-05-03T03:55:57.266Z,44.17
2019-05-03T03:58:27.673Z,47.57
2019-05-03T04:00:58.222Z,43.10
2019-05-03T04:03:28.783Z,44.60
2019-05-03T04:05:59.156Z,42.30
2019-05-03T04:08:29.508Z,47.83
2019-05-03T04:10:59.830Z,41.00
2019-05-03T04:13:31.380Z,45.27
2019-05-03T04:16:22.202Z,45.63
2019-05-03T04:19:05.587Z,44.03
2019-05-03T04:21:35.940Z,40.23
2019-05-03T04:24:06.447Z,37.07
2019-05-03T04:26:37.079Z,40.80
2019-05-03T04:29:08.612Z,40.83
2019-05-03T04:31:39.392Z,44.07
2019-05-03T04:34:09.702Z,37.87
2019-05-03T04:36:40.026Z,38.27
2019-05-03T04:39:10.442Z,38.40
2019-05-03T04:41:40.872Z,44.83
2019-05-03T04:44:11.217Z,43.97
2019-05-03T04:46:41.539Z,41.70
2019-05-03T04:49:11.892Z,38.57
2019-05-03T04:51:42.201Z,44.77
2019-05-03T04:54:26.897Z,40.07
2019-05-03T04:56:57.235Z,42.57
2019-05-03T04:59:27.711Z,46.87
2019-05-03T05:01:58.049Z,42.97
2019-05-03T05:04:28.374Z,44.20
2019-05-03T05:06:58.698Z,41.93
2019-05-03T05:09:29.056Z,47.73
2019-05-03T05:11:59.362Z,47.63
2019-05-03T05:14:29.794Z,47.43
2019-05-03T05:17:00.201Z,44.07
2019-05-03T05:19:48.187Z,40.00
2019-05-03T05:22:20.341Z,47.13
2019-05-03T05:24:50.691Z,43.90
2019-05-03T05:27:26.514Z,39.20
2019-05-03T05:29:57.552Z,40.70
2019-05-03T05:32:27.870Z,41.27
2019-05-03T05:34:58.224Z,37.53
2019-05-03T05:37:28.557Z,40.40
2019-05-03T05:39:58.917Z,37.40
2019-05-03T05:42:29.242Z,37.23
2019-05-03T05:44:59.596Z,34.50
2019-05-03T05:47:54.787Z,36.23
2019-05-03T05:50:34.675Z,33.30
2019-05-03T05:53:05.089Z,33.70
2019-05-03T05:55:54.980Z,36.80
2019-05-03T05:58:44.966Z,35.07
2019-05-03T06:01:28.189Z,36.07
2019-05-03T06:03:58.596Z,34.23
2019-05-03T06:06:51.779Z,36.87
2019-05-03T06:09:41.091Z,34.57
2019-05-03T06:12:16.033Z,34.77
2019-05-03T06:14:56.489Z,35.20
2019-05-03T06:17:31.708Z,35.53
2019-05-03T06:20:16.963Z,39.57
2019-05-03T06:23:15.130Z,35.73
2019-05-03T06:25:45.582Z,34.00
2019-05-03T06:28:30.543Z,35.80
2019-05-03T06:31:10.354Z,33.77
2019-05-03T06:33:40.670Z,34.30
2019-05-03T06:36:11.154Z,34.67
2019-05-03T06:38:42.330Z,33.13
2019-05-03T06:41:14.873Z,32.77
2019-05-03T06:43:48.519Z,32.27
2019-05-03T06:46:18.368Z,31.53
2019-05-03T06:48:48.978Z,32.03
2019-05-03T06:51:20.124Z,33.87
2019-05-03T06:53:50.758Z,33.47
2019-05-03T06:56:25.174Z,33.13
2019-05-03T06:58:54.702Z,35.40
2019-05-03T07:01:31.337Z,36.10
2019-05-03T07:04:09.506Z,34.83
2019-05-03T07:06:57.391Z,35.90
2019-05-03T07:09:54.587Z,31.97
2019-05-03T07:12:25.036Z,35.93
2019-05-03T07:14:55.551Z,40.67
2019-05-03T07:17:25.948Z,32.97
2019-05-03T07:19:57.387Z,35.37
2019-05-03T07:22:27.751Z,34.63
2019-05-03T07:24:58.115Z,33.40
2019-05-03T07:27:31.310Z,31.67
2019-05-03T07:30:01.675Z,35.13
2019-05-03T07:32:32.023Z,34.80
2019-05-03T07:35:04.421Z,33.23
2019-05-03T07:37:34.928Z,36.30
2019-05-03T07:40:05.475Z,33.77
2019-05-03T07:42:35.803Z,32.30
2019-05-03T07:45:06.315Z,34.20
2019-05-03T07:47:36.638Z,32.43
2019-05-03T07:50:07.210Z,33.70
2019-05-03T07:52:37.512Z,34.60
2019-05-03T07:55:08.090Z,30.63
2019-05-03T07:57:51.940Z,31.67
2019-05-03T08:00:25.348Z,31.17
2019-05-03T08:02:55.887Z,30.30
2019-05-03T08:05:27.102Z,29.13
2019-05-03T08:07:57.442Z,30.80
2019-05-03T08:10:28.795Z,29.20
2019-05-03T08:12:59.137Z,31.33
2019-05-03T08:15:29.506Z,30.77
2019-05-03T08:17:59.836Z,28.37
2019-05-03T08:20:30.147Z,28.13
2019-05-03T08:23:00.849Z,30.33
2019-05-03T08:25:31.127Z,28.40
2019-05-03T08:28:01.464Z,25.77
2019-05-03T08:31:04.633Z,24.87
2019-05-03T08:33:52.371Z,26.30
2019-05-03T08:36:24.643Z,24.70
2019-05-03T08:38:56.358Z,25.27
2019-05-03T08:41:29.346Z,25.27
2019-05-03T08:44:00.318Z,24.53
2019-05-03T08:46:31.435Z,25.67
2019-05-03T08:49:05.015Z,25.17
2019-05-03T08:51:35.397Z,24.33
2019-05-03T08:54:05.818Z,24.93
2019-05-03T08:56:37.311Z,23.43
2019-05-03T08:59:07.656Z,23.63
2019-05-03T09:01:39.511Z,22.53
2019-05-03T09:04:09.945Z,22.37
2019-05-03T09:06:40.356Z,21.33
2019-05-03T09:09:21.894Z,22.53
2019-05-03T09:11:52.323Z,21.13
2019-05-03T09:14:24.356Z,20.93
2019-05-03T09:16:55.554Z,20.07
2019-05-03T09:19:25.969Z,18.97
2019-05-03T09:21:56.329Z,19.47
2019-05-03T09:24:26.641Z,19.67
2019-05-03T09:26:57.006Z,16.30
2019-05-03T09:29:39.997Z,17.83
2019-05-03T09:32:02.144Z,17.17
2019-05-03T09:34:32.571Z,16.83
2019-05-03T09:37:04.810Z,17.40
2019-05-03T09:39:35.552Z,17.30
2019-05-03T09:42:06.092Z,15.80
2019-05-03T09:44:36.411Z,15.60
2019-05-03T09:47:06.764Z,15.67
2019-05-03T09:49:37.079Z,15.73
2019-05-03T09:52:08.519Z,14.30
2019-05-03T09:54:45.385Z,13.30
2019-05-03T09:57:15.784Z,12.43
2019-05-03T09:59:56.446Z,13.93
2019-05-03T10:02:18.148Z,13.47
2019-05-03T10:04:48.470Z,13.87
2019-05-03T10:07:18.820Z,13.33
2019-05-03T10:09:49.234Z,13.37
2019-05-03T10:12:21.474Z,13.77
2019-05-03T10:14:51.903Z,14.23
2019-05-03T10:17:55.321Z,14.67
2019-05-03T10:20:27.108Z,13.90
2019-05-03T10:23:00.259Z,13.23
2019-05-03T10:25:30.577Z,11.33
2019-05-03T10:28:00.951Z,12.13
2019-05-03T10:30:31.274Z,11.97
2019-05-03T10:33:10.354Z,10.90
2019-05-03T10:35:40.706Z,9.97
2019-05-03T10:38:11.011Z,9.77
2019-05-03T10:40:41.471Z,8.53
2019-05-03T10:43:11.781Z,7.37
2019-05-03T10:45:42.211Z,7.03
2019-05-03T10:48:12.515Z,8.90
2019-05-03T10:50:42.832Z,6.77
2019-05-03T10:53:19.815Z,9.00
2019-05-03T10:56:07.586Z,9.17
2019-05-03T10:58:38.004Z,10.07
2019-05-03T11:01:08.331Z,7.20
2019-05-03T11:03:38.696Z,6.83
2019-05-03T11:06:08.999Z,7.17
2019-05-03T11:08:39.337Z,8.20
2019-05-03T11:11:09.749Z,7.30
2019-05-03T11:13:40.085Z,6.87
2019-05-03T11:16:10.389Z,7.27
2019-05-03T11:18:40.698Z,6.77
2019-05-03T11:21:11.017Z,6.80
2019-05-03T11:23:41.379Z,6.57
2019-05-03T11:26:11.687Z,5.92
2019-05-03T11:28:42.065Z,6.87
2019-05-03T11:31:30.261Z,6.33
2019-05-03T11:34:02.467Z,6.50
2019-05-03T11:36:46.219Z,5.97
2019-05-03T11:39:16.592Z,6.40
2019-05-03T11:41:50.147Z,6.50
2019-05-03T11:44:39.045Z,6.20
2019-05-03T11:47:09.870Z,6.45
2019-05-03T11:49:41.502Z,6.20
2019-05-03T11:52:11.875Z,5.90
2019-05-03T11:54:42.231Z,6.17
2019-05-03T11:57:19.555Z,5.75
2019-05-03T11:59:49.943Z,4.95
2019-05-03T12:02:39.164Z,5.20
2019-05-03T12:05:15.729Z,4.85
2019-05-03T12:07:46.081Z,5.50
2019-05-03T12:10:32.445Z,4.90
2019-05-03T12:12:52.427Z,5.35
2019-05-03T12:15:22.910Z,6.37
2019-05-03T12:17:59.094Z,6.20
2019-05-03T12:20:30.002Z,7.40
2019-05-03T12:23:00.964Z,7.83
2019-05-03T12:25:32.351Z,7.23
2019-05-03T12:28:05.658Z,7.27
2019-05-03T12:30:35.571Z,6.83
2019-05-03T12:33:06.315Z,6.53
2019-05-03T12:35:36.860Z,7.10
2019-05-03T12:38:07.212Z,7.30
2019-05-03T12:40:37.548Z,6.83
2019-05-03T12:43:07.911Z,8.80
2019-05-03T12:45:38.246Z,7.17
2019-05-03T12:48:08.551Z,6.93
2019-05-03T12:50:39.056Z,13.90
2019-05-03T12:53:09.751Z,6.57
2019-05-03T12:55:40.091Z,6.83
2019-05-03T12:58:10.482Z,9.00
2019-05-03T13:00:59.785Z,11.23
2019-05-03T13:03:39.581Z,6.73
2019-05-03T13:06:09.940Z,6.40
2019-05-03T13:08:45.603Z,7.03
2019-05-03T13:11:16.071Z,6.33
2019-05-03T13:13:46.494Z,7.13
2019-05-03T13:16:19.709Z,7.00
2019-05-03T13:18:50.063Z,8.33
2019-05-03T13:21:20.476Z,7.70
2019-05-03T13:23:50.871Z,6.53
2019-05-03T13:26:21.208Z,7.93
2019-05-03T13:28:51.532Z,7.80
2019-05-03T13:31:21.980Z,6.83
2019-05-03T13:33:52.297Z,7.07
2019-05-03T13:36:22.674Z,7.90
2019-05-03T13:38:55.866Z,7.77
2019-05-03T13:41:25.127Z,7.63
2019-05-03T13:43:55.436Z,8.07
2019-05-03T13:46:25.817Z,8.00
2019-05-03T13:48:56.173Z,7.93
2019-05-03T13:51:26.483Z,8.60
2019-05-03T13:53:56.826Z,8.50
2019-05-03T13:56:28.243Z,8.03
2019-05-03T13:58:58.594Z,8.80
2019-05-03T14:01:28.977Z,8.60
2019-05-03T14:03:59.347Z,8.50
2019-05-03T14:06:29.805Z,8.40
2019-05-03T14:09:00.971Z,8.70
2019-05-03T14:11:32.937Z,7.77
2019-05-03T14:14:04.681Z,8.93
2019-05-03T14:16:35.239Z,7.80
2019-05-03T14:19:14.691Z,9.00
2019-05-03T14:21:49.553Z,7.60
2019-05-03T14:24:20.510Z,7.57
2019-05-03T14:26:50.866Z,8.50
2019-05-03T14:29:21.231Z,8.00
2019-05-03T14:31:51.596Z,7.63
2019-05-03T14:34:21.944Z,8.07
2019-05-03T14:36:52.305Z,7.80
2019-05-03T14:39:22.632Z,7.37
2019-05-03T14:41:55.334Z,7.53
2019-05-03T14:44:25.453Z,7.07
2019-05-03T14:46:59.200Z,8.00
2019-05-03T14:49:29.040Z,7.10
2019-05-03T14:51:59.525Z,7.50
2019-05-03T14:54:34.152Z,6.80
2019-05-03T14:57:25.959Z,7.73
2019-05-03T15:00:17.347Z,6.93
2019-05-03T15:02:57.656Z,6.97
2019-05-03T15:05:25.474Z,6.93
2019-05-03T15:07:56.013Z,7.47
2019-05-03T15:10:27.435Z,7.37
2019-05-03T15:12:57.791Z,7.67
2019-05-03T15:15:28.884Z,9.23
2019-05-03T15:17:59.384Z,7.80
2019-05-03T15:20:29.771Z,7.23
2019-05-03T15:23:00.109Z,8.40
2019-05-03T15:25:30.429Z,13.20
2019-05-03T15:28:00.789Z,14.80
2019-05-03T15:30:31.211Z,10.43
2019-05-03T15:33:01.545Z,7.47
2019-05-03T15:35:31.866Z,7.60
2019-05-03T15:38:02.225Z,7.97
2019-05-03T15:40:33.687Z,5.90
2019-05-03T15:43:30.177Z,4.30
2019-05-03T15:46:31.387Z,4.50
2019-05-03T15:49:02.092Z,4.37
2019-05-03T15:51:32.399Z,3.87
2019-05-03T15:54:04.455Z,4.23
2019-05-03T15:56:35.043Z,5.87
2019-05-03T15:59:05.691Z,3.80
2019-05-03T16:01:36.064Z,4.40
2019-05-03T16:04:06.402Z,4.13
2019-05-03T16:06:36.731Z,3.87
2019-05-03T16:09:07.905Z,7.43
2019-05-03T16:11:38.786Z,3.80
2019-05-03T16:14:09.157Z,7.03
2019-05-03T16:16:39.467Z,3.97
2019-05-03T16:19:09.817Z,4.00
2019-05-03T16:21:40.138Z,4.53
2019-05-03T16:24:10.470Z,4.53
2019-05-03T16:26:58.292Z,6.47
2019-05-03T16:29:29.829Z,4.50
2019-05-03T16:32:00.140Z,4.93
2019-05-03T16:34:32.180Z,5.77
2019-05-03T16:37:04.273Z,5.33
2019-05-03T16:39:35.358Z,4.50
2019-05-03T16:42:07.482Z,4.20
2019-05-03T16:44:37.853Z,3.80
2019-05-03T16:47:08.190Z,5.90
2019-05-03T16:49:38.554Z,4.07
2019-05-03T16:52:08.884Z,4.40
2019-05-03T16:54:39.222Z,3.77
2019-05-03T16:57:09.532Z,3.83
2019-05-03T16:59:39.857Z,4.40
2019-05-03T17:02:10.211Z,4.03
2019-05-03T17:04:48.467Z,4.60
2019-05-03T17:07:25.581Z,4.40
2019-05-03T17:10:00.159Z,4.57
2019-05-03T17:12:31.265Z,6.33
2019-05-03T17:15:01.711Z,4.73
2019-05-03T17:17:32.082Z,4.00
2019-05-03T17:20:02.712Z,3.67
2019-05-03T17:22:34.466Z,4.13
2019-05-03T17:25:06.522Z,3.90
2019-05-03T17:27:37.441Z,4.03
2019-05-03T17:30:07.793Z,3.87
2019-05-03T17:32:38.250Z,4.50
2019-05-03T17:35:08.537Z,4.00
2019-05-03T17:37:38.839Z,4.60
2019-05-03T17:40:28.457Z,4.77
2019-05-03T17:43:19.016Z,3.70
2019-05-03T17:45:52.222Z,4.17
2019-05-03T17:48:23.360Z,3.57
2019-05-03T17:50:55.053Z,3.50
2019-05-03T17:53:54.870Z,4.40
2019-05-03T17:56:44.545Z,5.00
2019-05-03T17:59:44.472Z,4.17
2019-05-03T18:02:29.979Z,5.00
2019-05-03T18:05:19.294Z,4.70
2019-05-03T18:08:15.599Z,5.57
2019-05-03T18:10:51.723Z,3.80
2019-05-03T18:13:22.145Z,3.17
2019-05-03T18:15:54.250Z,3.57
2019-05-03T18:18:24.799Z,3.40
2019-05-03T18:20:55.518Z,2.83
2019-05-03T18:23:25.899Z,3.40
2019-05-03T18:25:56.265Z,2.67
2019-05-03T18:28:26.695Z,3.43
2019-05-03T18:30:57.063Z,3.00
2019-05-03T18:33:28.360Z,3.80
2019-05-03T18:35:59.032Z,7.27
2019-05-03T18:38:30.920Z,2.67
2019-05-03T18:41:04.652Z,2.97
2019-05-03T18:43:41.734Z,13.07
2019-05-03T18:46:30.369Z,3.83
2019-05-03T18:49:01.600Z,4.90
2019-05-03T18:51:34.381Z,3.33
2019-05-03T18:54:07.302Z,4.20
2019-05-03T18:56:37.781Z,3.70
2019-05-03T18:59:08.190Z,4.57
2019-05-03T19:01:38.618Z,4.13
2019-05-03T19:04:35.767Z,4.53
2019-05-03T19:07:07.728Z,4.00
2019-05-03T19:09:55.427Z,5.50
2019-05-03T19:12:35.708Z,6.33
2019-05-03T19:15:06.315Z,3.77
2019-05-03T19:17:54.705Z,3.10
2019-05-03T19:20:25.167Z,5.40
2019-05-03T19:22:55.881Z,5.13
2019-05-03T19:25:26.253Z,3.70
2019-05-03T19:27:58.603Z,3.20
2019-05-03T19:30:29.267Z,3.20
2019-05-03T19:32:59.718Z,3.80
2019-05-03T19:35:30.093Z,6.30
2019-05-03T19:38:00.566Z,5.57
2019-05-03T19:40:31.058Z,6.43
2019-05-03T19:43:02.825Z,6.90
2019-05-03T19:45:35.187Z,7.20
2019-05-03T19:48:11.664Z,8.50
2019-05-03T19:50:46.391Z,8.47
2019-05-03T19:53:39.191Z,8.93
2019-05-03T19:56:09.943Z,7.87
2019-05-03T19:58:40.280Z,7.97
2019-05-03T20:01:35.439Z,8.10
2019-05-03T20:04:16.139Z,8.43
2019-05-03T20:07:05.454Z,8.47
2019-05-03T20:09:35.835Z,8.57
2019-05-03T20:12:06.149Z,7.70
2019-05-03T20:14:36.527Z,8.40
2019-05-03T20:17:06.952Z,8.27
2019-05-03T20:19:37.410Z,7.30
2019-05-03T20:22:07.716Z,7.80
2019-05-03T20:24:38.081Z,7.87
2019-05-03T20:27:12.458Z,7.10
2019-05-03T20:29:44.365Z,7.60
2019-05-03T20:32:15.930Z,7.20
2019-05-03T20:34:46.411Z,7.47
2019-05-03T20:37:16.725Z,7.90
2019-05-03T20:39:47.060Z,8.10
2019-05-03T20:42:36.320Z,7.90
2019-05-03T20:45:10.737Z,8.00
2019-05-03T20:47:51.012Z,8.63
2019-05-03T20:50:22.347Z,8.53
2019-05-03T20:52:54.836Z,9.43
2019-05-03T20:55:25.618Z,8.67
2019-05-03T20:57:56.071Z,11.13
2019-05-03T21:00:27.086Z,8.43
2019-05-03T21:02:58.366Z,8.80
2019-05-03T21:05:32.894Z,9.53
2019-05-03T21:08:00.650Z,10.07
2019-05-03T21:10:31.061Z,11.23
2019-05-03T21:13:05.300Z,9.77
2019-05-03T21:15:44.508Z,9.97
2019-05-03T21:18:42.305Z,9.00
2019-05-03T21:21:25.180Z,13.50
2019-05-03T21:24:00.846Z,10.53
2019-05-03T21:26:41.330Z,10.37
2019-05-03T21:29:15.291Z,9.73
2019-05-03T21:31:45.899Z,9.83
2019-05-03T21:34:16.287Z,9.40
2019-05-03T21:36:46.650Z,10.10
2019-05-03T21:39:17.003Z,9.93
2019-05-03T21:41:47.327Z,9.87
2019-05-03T21:44:34.230Z,10.53
2019-05-03T21:47:35.021Z,8.87
2019-05-03T21:50:06.685Z,8.93
2019-05-03T21:52:38.221Z,9.00
2019-05-03T21:55:08.586Z,9.00
2019-05-03T21:57:38.924Z,8.43
2019-05-03T22:00:12.003Z,8.40
2019-05-03T22:02:43.938Z,8.10
2019-05-03T22:05:16.377Z,7.93
2019-05-03T22:07:46.219Z,8.30
2019-05-03T22:10:16.769Z,8.57
2019-05-03T22:12:47.172Z,8.93
2019-05-03T22:15:28.380Z,8.87
2019-05-03T22:18:15.239Z,9.47
2019-05-03T22:20:58.114Z,9.63
2019-05-03T22:23:46.712Z,10.03
2019-05-03T22:26:17.408Z,10.23
2019-05-03T22:28:47.818Z,10.87
2019-05-03T22:31:18.159Z,10.37
2019-05-03T22:33:49.550Z,12.17
2019-05-03T22:36:19.976Z,10.50
2019-05-03T22:38:50.305Z,11.10
2019-05-03T22:41:20.754Z,11.07
2019-05-03T22:43:51.128Z,11.00
2019-05-03T22:46:21.503Z,10.37
2019-05-03T22:48:51.891Z,11.47
2019-05-03T22:51:24.344Z,11.10
2019-05-03T22:53:55.251Z,11.33
2019-05-03T22:56:26.793Z,10.87
2019-05-03T22:58:57.115Z,10.83
2019-05-03T23:01:27.514Z,11.27
2019-05-03T23:03:58.914Z,11.53
2019-05-03T23:06:29.263Z,11.60
2019-05-03T23:08:59.592Z,11.50
2019-05-03T23:11:30.069Z,11.63
2019-05-03T23:14:04.942Z,12.27
2019-05-03T23:16:35.814Z,12.50
2019-05-03T23:19:06.285Z,10.87
2019-05-03T23:21:55.590Z,11.90
2019-05-03T23:24:25.911Z,10.97
2019-05-03T23:26:56.269Z,12.83
2019-05-03T23:29:26.697Z,12.80
2019-05-03T23:31:57.110Z,11.33
2019-05-03T23:34:27.465Z,11.30
2019-05-03T23:36:57.802Z,11.57
2019-05-03T23:39:28.122Z,11.63
2019-05-03T23:41:58.504Z,11.53
2019-05-03T23:44:29.856Z,11.53
2019-05-03T23:47:34.570Z,10.63
2019-05-03T23:50:07.070Z,10.37
2019-05-03T23:52:38.256Z,10.33
2019-05-03T23:55:19.254Z,10.03
2019-05-03T23:57:49.789Z,10.57
